createdAt,value
2019-06-26T00:00:47.540Z,24.80
2019-06-26T00:03:16.949Z,24.80
2019-06-26T00:05:45.373Z,24.90
2019-06-26T00:08:13.850Z,24.90
2019-06-26T00:13:25.074Z,24.90
2019-06-26T00:15:40.645Z,24.80
2019-06-26T00:18:09.079Z,24.80
2019-06-26T00:20:37.550Z,24.70
2019-06-26T00:23:06.405Z,24.70
2019-06-26T00:28:03.531Z,24.70
2019-06-26T00:30:32.087Z,24.70
2019-06-26T00:33:00.534Z,24.70
2019-06-26T00:37:57.072Z,24.70
2019-06-26T00:40:25.575Z,24.70
2019-06-26T00:42:54.238Z,24.60
2019-06-26T00:47:51.270Z,24.60
2019-06-26T00:55:17.119Z,24.70
2019-06-26T00:57:45.546Z,24.70
2019-06-26T01:00:14.763Z,24.60
2019-06-26T01:02:43.191Z,24.60
2019-06-26T01:05:13.061Z,24.60
2019-06-26T01:07:41.760Z,24.70
2019-06-26T01:10:14.798Z,24.60
2019-06-26T01:12:43.297Z,24.60
2019-06-26T01:15:12.445Z,24.60
2019-06-26T01:17:41.018Z,24.50
2019-06-26T01:20:10.052Z,24.60
2019-06-26T01:22:38.489Z,24.60
2019-06-26T01:25:07.461Z,24.50
2019-06-26T01:27:35.972Z,24.40
2019-06-26T01:35:06.793Z,24.40
2019-06-26T01:37:35.257Z,24.40
2019-06-26T01:40:06.129Z,24.40
2019-06-26T01:42:34.590Z,24.40
2019-06-26T01:45:03.390Z,24.40
2019-06-26T01:47:31.867Z,24.40
2019-06-26T01:50:00.313Z,24.40
2019-06-26T01:54:56.877Z,24.30
2019-06-26T01:57:25.317Z,24.20
2019-06-26T02:02:21.990Z,24.10
2019-06-26T02:04:50.451Z,24.10
2019-06-26T02:07:18.901Z,24.10
2019-06-26T02:12:15.545Z,24.00
2019-06-26T02:14:43.982Z,24.00
2019-06-26T02:19:40.525Z,24.00
2019-06-26T02:22:08.994Z,23.90
2019-06-26T02:24:37.437Z,23.90
2019-06-26T02:27:05.882Z,23.90
2019-06-26T02:32:02.422Z,23.80
2019-06-26T02:36:59.010Z,23.80
2019-06-26T02:39:27.479Z,23.90
2019-06-26T02:41:56.181Z,23.80
2019-06-26T02:46:52.713Z,23.70
2019-06-26T02:49:21.179Z,23.80
2019-06-26T02:54:18.016Z,23.70
2019-06-26T02:56:46.567Z,23.70
2019-06-26T02:59:15.152Z,23.70
2019-06-26T03:01:44.045Z,23.60
2019-06-26T03:11:36.829Z,23.50
2019-06-26T03:14:05.343Z,23.50
2019-06-26T03:16:33.774Z,23.50
2019-06-26T03:19:02.265Z,23.50
2019-06-26T03:21:30.717Z,23.50
2019-06-26T03:23:59.157Z,23.50
2019-06-26T03:26:27.610Z,23.50
2019-06-26T03:28:56.050Z,23.70
2019-06-26T03:31:24.638Z,23.70
2019-06-26T03:33:53.085Z,23.70
2019-06-26T03:36:21.524Z,23.50
2019-06-26T03:38:50.177Z,23.50
2019-06-26T03:43:46.733Z,23.60
2019-06-26T03:46:15.149Z,23.50
2019-06-26T03:51:13.866Z,23.60
2019-06-26T03:53:41.853Z,23.60
2019-06-26T04:01:06.580Z,23.70
2019-06-26T04:06:03.105Z,23.80
2019-06-26T04:08:31.532Z,23.90
2019-06-26T04:11:00.172Z,23.90
2019-06-26T04:13:28.667Z,23.90
2019-06-26T04:15:57.124Z,23.90
2019-06-26T04:18:25.551Z,23.90
2019-06-26T04:20:53.992Z,24.00
2019-06-26T04:23:22.436Z,24.00
2019-06-26T04:28:18.988Z,24.10
2019-06-26T04:30:47.475Z,24.10
2019-06-26T04:33:15.939Z,24.20
2019-06-26T04:40:40.641Z,24.30
2019-06-26T04:43:09.077Z,24.40
2019-06-26T04:48:07.207Z,24.50
2019-06-26T04:50:35.964Z,24.50
2019-06-26T04:53:04.590Z,24.60
2019-06-26T04:55:33.128Z,24.70
2019-06-26T04:58:01.569Z,24.70
2019-06-26T05:00:30.165Z,24.80
2019-06-26T05:02:58.642Z,24.90
2019-06-26T05:07:56.996Z,25.10
2019-06-26T05:10:25.427Z,25.20
2019-06-26T05:12:56.888Z,25.20
2019-06-26T05:15:25.816Z,25.30
2019-06-26T05:20:22.379Z,25.40
2019-06-26T05:22:50.901Z,25.50
2019-06-26T05:25:19.324Z,25.50
2019-06-26T05:27:47.791Z,25.60
2019-06-26T05:30:16.593Z,25.60
2019-06-26T05:32:45.425Z,25.70
2019-06-26T05:35:14.776Z,25.80
2019-06-26T05:37:43.216Z,25.80
2019-06-26T05:45:12.137Z,25.90
2019-06-26T05:50:12.888Z,25.70
2019-06-26T05:52:43.359Z,25.70
2019-06-26T06:00:11.859Z,25.80
2019-06-26T06:02:40.543Z,25.90
2019-06-26T06:05:09.514Z,25.90
2019-06-26T06:07:38.033Z,25.90
2019-06-26T06:10:07.072Z,26.00
2019-06-26T06:12:35.500Z,26.00
2019-06-26T06:15:06.702Z,26.10
2019-06-26T06:20:09.028Z,26.10
2019-06-26T06:22:37.539Z,26.20
2019-06-26T06:25:07.036Z,26.20
2019-06-26T06:30:07.387Z,26.40
2019-06-26T06:32:35.813Z,26.40
2019-06-26T06:35:05.724Z,26.40
2019-06-26T06:37:34.695Z,26.40
2019-06-26T06:40:04.607Z,26.40
2019-06-26T06:42:33.134Z,26.40
2019-06-26T06:45:02.097Z,26.50
2019-06-26T06:47:30.663Z,26.50
2019-06-26T06:49:59.193Z,26.50
2019-06-26T06:52:27.981Z,26.50
2019-06-26T06:57:24.588Z,26.60
2019-06-26T06:59:53.134Z,26.70
2019-06-26T07:02:21.803Z,26.70
2019-06-26T07:04:50.261Z,26.70
2019-06-26T07:07:18.913Z,26.80
2019-06-26T07:09:47.608Z,26.80
2019-06-26T07:12:16.405Z,26.80
2019-06-26T07:14:44.865Z,26.80
2019-06-26T07:24:42.910Z,26.90
2019-06-26T07:27:11.340Z,26.90
2019-06-26T07:32:07.912Z,27.10
2019-06-26T07:34:36.361Z,27.10
2019-06-26T07:39:33.039Z,27.20
2019-06-26T07:44:30.142Z,27.20
2019-06-26T07:46:58.675Z,27.10
2019-06-26T07:49:27.179Z,27.00
2019-06-26T07:51:55.735Z,27.00
2019-06-26T07:56:52.329Z,27.10
2019-06-26T07:59:20.834Z,27.20
2019-06-26T08:01:49.319Z,27.20
2019-06-26T08:04:17.740Z,27.20
2019-06-26T08:06:46.169Z,27.30
2019-06-26T08:09:14.593Z,27.10
2019-06-26T08:14:11.255Z,27.30
2019-06-26T08:16:39.789Z,27.40
2019-06-26T08:19:08.230Z,27.40
2019-06-26T08:21:36.680Z,27.40
2019-06-26T08:24:05.239Z,27.40
2019-06-26T08:26:33.688Z,27.40
2019-06-26T08:29:02.461Z,27.40
2019-06-26T08:36:27.356Z,27.40
2019-06-26T08:38:55.814Z,27.60
2019-06-26T08:41:24.258Z,27.70
2019-06-26T08:43:52.721Z,27.70
2019-06-26T08:46:21.169Z,27.80
2019-06-26T08:48:52.117Z,27.80
2019-06-26T08:53:48.657Z,28.00
2019-06-26T08:56:17.089Z,28.00
2019-06-26T08:58:45.540Z,28.00
2019-06-26T09:06:10.916Z,27.90
2019-06-26T09:08:39.377Z,27.90
2019-06-26T09:13:36.067Z,28.00
2019-06-26T09:18:35.780Z,28.00
2019-06-26T09:21:03.064Z,28.10
2019-06-26T09:23:31.513Z,28.00
2019-06-26T09:26:00.080Z,28.00
2019-06-26T09:28:28.507Z,28.10
2019-06-26T09:30:56.961Z,28.10
2019-06-26T09:33:25.521Z,28.10
2019-06-26T09:35:53.977Z,28.10
2019-06-26T09:38:22.585Z,28.00
2019-06-26T09:40:51.038Z,27.90
2019-06-26T09:43:19.572Z,27.80
2019-06-26T09:45:51.393Z,27.80
2019-06-26T09:48:19.929Z,27.80
2019-06-26T09:50:48.372Z,27.80
2019-06-26T09:53:16.854Z,27.70
2019-06-26T09:55:45.293Z,27.70
2019-06-26T10:00:42.619Z,27.80
2019-06-26T10:03:11.058Z,27.80
2019-06-26T10:05:39.521Z,27.70
2019-06-26T10:10:36.485Z,27.90
2019-06-26T10:15:33.119Z,27.50
2019-06-26T10:18:02.748Z,27.30
2019-06-26T10:20:31.218Z,27.40
2019-06-26T10:22:59.735Z,27.40
2019-06-26T10:25:28.194Z,27.50
2019-06-26T10:27:56.637Z,27.40
2019-06-26T10:32:53.203Z,27.60
2019-06-26T10:35:21.831Z,27.40
2019-06-26T10:40:18.820Z,27.20
2019-06-26T10:47:43.940Z,27.00
2019-06-26T10:50:13.208Z,27.10
2019-06-26T10:55:10.608Z,27.00
2019-06-26T10:57:39.261Z,27.00
2019-06-26T11:02:39.795Z,26.90
2019-06-26T11:10:08.826Z,26.80
2019-06-26T11:12:37.261Z,26.90
2019-06-26T11:15:10.269Z,26.70
2019-06-26T11:17:38.780Z,26.60
2019-06-26T11:20:10.409Z,26.70
2019-06-26T11:25:09.245Z,26.70
2019-06-26T11:27:37.968Z,26.70
2019-06-26T11:35:06.426Z,26.70
2019-06-26T11:37:34.884Z,26.80
2019-06-26T11:40:05.018Z,26.70
2019-06-26T11:42:34.567Z,26.40
2019-06-26T11:45:03.954Z,26.10
2019-06-26T11:47:32.655Z,26.20
2019-06-26T11:50:01.310Z,26.50
2019-06-26T11:52:31.316Z,26.70
2019-06-26T11:55:03.083Z,26.60
2019-06-26T11:59:58.333Z,26.50
2019-06-26T12:02:26.770Z,26.70
2019-06-26T12:04:55.205Z,26.60
2019-06-26T12:07:23.670Z,26.40
2019-06-26T12:09:52.129Z,26.20
2019-06-26T12:14:49.858Z,26.20
2019-06-26T12:17:18.358Z,26.30
2019-06-26T12:19:46.796Z,26.30
2019-06-26T12:22:15.484Z,26.30
2019-06-26T12:24:44.000Z,26.40
2019-06-26T12:27:12.443Z,26.20
2019-06-26T12:29:40.907Z,25.90
2019-06-26T12:32:09.353Z,25.80
2019-06-26T12:37:05.931Z,26.00
2019-06-26T12:39:34.384Z,25.90
2019-06-26T12:42:02.805Z,25.90
2019-06-26T12:44:32.789Z,25.90
2019-06-26T12:47:01.216Z,25.90
2019-06-26T12:49:29.677Z,26.00
2019-06-26T12:51:58.119Z,25.90
2019-06-26T12:54:28.279Z,25.80
2019-06-26T12:56:57.401Z,25.70
2019-06-26T12:59:25.899Z,25.80
2019-06-26T13:01:54.769Z,25.90
2019-06-26T13:04:23.205Z,26.10
2019-06-26T13:06:51.649Z,25.80
2019-06-26T13:09:20.106Z,25.70
2019-06-26T13:11:48.537Z,25.40
2019-06-26T13:19:13.303Z,25.10
2019-06-26T13:21:41.809Z,25.30
2019-06-26T13:24:10.297Z,25.20
2019-06-26T13:26:38.726Z,25.10
2019-06-26T13:31:37.101Z,25.10
2019-06-26T13:36:34.658Z,25.00
2019-06-26T13:39:03.101Z,25.20
2019-06-26T13:41:32.232Z,25.30
2019-06-26T13:46:28.813Z,25.30
2019-06-26T13:48:57.294Z,25.30
2019-06-26T13:56:22.143Z,25.20
2019-06-26T13:58:50.552Z,25.30
2019-06-26T14:03:47.144Z,25.10
2019-06-26T14:06:15.653Z,25.10
2019-06-26T14:11:12.357Z,25.00
2019-06-26T14:13:41.935Z,25.00
2019-06-26T14:16:11.324Z,25.10
2019-06-26T14:18:40.001Z,25.00
2019-06-26T14:23:38.411Z,25.20
2019-06-26T14:26:06.844Z,25.10
2019-06-26T14:28:35.294Z,25.20
2019-06-26T14:31:03.740Z,25.50
2019-06-26T14:33:33.654Z,25.30
2019-06-26T14:40:58.568Z,25.00
2019-06-26T14:43:27.025Z,25.20
2019-06-26T14:45:55.560Z,25.20
2019-06-26T14:50:52.304Z,25.40
2019-06-26T14:53:20.805Z,25.60
2019-06-26T14:58:17.362Z,25.10
2019-06-26T15:00:45.789Z,25.20
2019-06-26T15:03:14.246Z,25.20
2019-06-26T15:05:44.228Z,25.30
2019-06-26T15:10:40.798Z,25.00
2019-06-26T15:13:09.235Z,25.20
2019-06-26T15:18:05.941Z,24.70
2019-06-26T15:20:34.370Z,24.40
2019-06-26T15:28:00.606Z,24.10
2019-06-26T15:32:57.189Z,24.40
2019-06-26T15:35:25.675Z,24.50
2019-06-26T15:37:54.129Z,24.70
2019-06-26T15:40:22.559Z,24.60
2019-06-26T15:42:51.799Z,24.70
2019-06-26T15:45:20.919Z,24.60
2019-06-26T15:47:50.235Z,24.20
2019-06-26T15:50:18.683Z,24.80
2019-06-26T16:00:12.761Z,24.30
2019-06-26T16:05:09.758Z,24.60
2019-06-26T16:07:38.193Z,24.90
2019-06-26T16:12:35.205Z,24.50
2019-06-26T16:22:36.480Z,24.20
2019-06-26T16:25:06.106Z,24.50
2019-06-26T16:27:34.547Z,24.50
2019-06-26T16:30:03.409Z,24.70
2019-06-26T16:39:56.213Z,23.30
2019-06-26T16:42:26.040Z,23.10
2019-06-26T16:44:54.477Z,22.90
2019-06-26T16:49:51.187Z,22.10
2019-06-26T16:57:15.904Z,21.60
2019-06-26T16:59:44.384Z,21.60
2019-06-26T17:02:12.897Z,22.00
2019-06-26T17:04:41.334Z,21.80
2019-06-26T17:07:09.792Z,21.70
2019-06-26T17:09:38.365Z,21.80
2019-06-26T17:12:06.886Z,21.70
2019-06-26T17:14:35.345Z,22.20
2019-06-26T17:19:31.882Z,22.10
2019-06-26T17:24:28.625Z,22.10
2019-06-26T17:26:59.364Z,22.40
2019-06-26T17:29:27.841Z,22.70
2019-06-26T17:31:56.299Z,22.40
2019-06-26T17:39:22.861Z,22.10
2019-06-26T17:41:51.320Z,21.50
2019-06-26T17:44:19.818Z,21.20
2019-06-26T17:46:48.328Z,21.10
2019-06-26T17:54:12.962Z,20.20
2019-06-26T17:59:09.508Z,20.40
2019-06-26T18:01:37.992Z,20.00
2019-06-26T18:09:04.345Z,19.90
2019-06-26T18:11:32.779Z,19.90
2019-06-26T18:16:30.310Z,20.10
2019-06-26T18:26:23.161Z,19.90
2019-06-26T18:31:20.609Z,19.70
2019-06-26T18:38:46.874Z,19.40
2019-06-26T18:41:18.476Z,19.40
2019-06-26T18:46:13.594Z,19.60
2019-06-26T18:56:08.064Z,19.40
2019-06-26T18:58:36.521Z,19.20
2019-06-26T19:01:05.329Z,18.80
2019-06-26T19:08:29.978Z,18.90
2019-06-26T19:15:54.653Z,18.70
2019-06-26T19:20:51.421Z,18.80
2019-06-26T19:23:19.870Z,18.90
2019-06-26T19:28:16.406Z,19.00
2019-06-26T19:30:44.833Z,18.90
2019-06-26T19:33:13.293Z,18.80
2019-06-26T19:35:43.197Z,18.80
2019-06-26T19:38:11.701Z,18.70
2019-06-26T19:40:40.507Z,18.80
2019-06-26T19:48:06.879Z,19.00
2019-06-26T19:53:03.434Z,18.80
2019-06-26T19:55:31.886Z,18.80
2019-06-26T20:00:28.684Z,18.80
2019-06-26T20:02:57.260Z,18.60
2019-06-26T20:07:53.896Z,18.70
2019-06-26T20:10:22.674Z,18.60
2019-06-26T20:12:51.168Z,18.50
2019-06-26T20:15:20.081Z,18.40
2019-06-26T20:17:48.577Z,18.30
2019-06-26T20:20:18.252Z,18.20
2019-06-26T20:22:46.675Z,18.20
2019-06-26T20:27:43.579Z,18.30
2019-06-26T20:30:12.989Z,18.30
2019-06-26T20:32:41.417Z,18.30
2019-06-26T20:35:12.244Z,18.30
2019-06-26T20:40:09.528Z,18.40
2019-06-26T20:42:37.954Z,18.40
2019-06-26T20:50:07.744Z,18.40
2019-06-26T20:52:36.242Z,18.40
2019-06-26T20:55:06.696Z,18.30
2019-06-26T21:05:01.953Z,18.20
2019-06-26T21:09:58.604Z,18.20
2019-06-26T21:12:27.090Z,18.10
2019-06-26T21:14:55.566Z,18.10
2019-06-26T21:19:53.901Z,17.80
2019-06-26T21:24:50.605Z,17.80
2019-06-26T21:29:47.214Z,17.80
2019-06-26T21:32:15.670Z,18.00
2019-06-26T21:37:12.217Z,18.10
2019-06-26T21:39:40.634Z,17.90
2019-06-26T21:44:37.228Z,17.70
2019-06-26T21:47:05.673Z,17.70
2019-06-26T21:52:03.389Z,17.70
2019-06-26T21:54:31.822Z,17.70
2019-06-26T21:59:28.909Z,17.80
2019-06-26T22:01:57.648Z,17.80
2019-06-26T22:04:26.413Z,17.60
2019-06-26T22:06:54.854Z,17.20
2019-06-26T22:09:23.412Z,17.20
2019-06-26T22:21:44.586Z,17.50
2019-06-26T22:26:42.199Z,17.60
2019-06-26T22:34:08.651Z,17.50
2019-06-26T22:39:06.285Z,17.50
2019-06-26T22:41:34.801Z,17.30
2019-06-26T22:46:31.357Z,17.30
2019-06-26T22:48:59.798Z,17.10
2019-06-26T22:51:28.227Z,16.90
2019-06-26T22:56:25.400Z,16.90
2019-06-26T22:58:53.890Z,16.90
2019-06-26T23:01:23.389Z,17.00
2019-06-26T23:03:52.096Z,16.80
2019-06-26T23:06:20.526Z,16.80
2019-06-26T23:13:46.774Z,16.50
2019-06-26T23:16:16.366Z,16.60
2019-06-26T23:28:39.084Z,16.60
2019-06-26T23:33:35.838Z,16.60
2019-06-26T23:36:04.308Z,16.60
2019-06-26T23:38:32.781Z,16.70
2019-06-26T23:43:29.323Z,16.70
2019-06-26T23:45:57.751Z,16.50
2019-06-26T23:48:26.190Z,16.40
2019-06-26T23:50:54.641Z,16.20
2019-06-26T23:55:51.300Z,16.10
2019-06-26T23:58:20.022Z,16.00
